createdAt,value
2022-11-17T00:00:37.695Z,95476.00
2022-11-17T00:03:03.875Z,95482.00
2022-11-17T00:05:30.014Z,95463.00
2022-11-17T00:07:56.243Z,95472.00
2022-11-17T00:10:22.628Z,95461.00
2022-11-17T00:13:07.386Z,95469.00
2022-11-17T00:15:33.701Z,95442.00
2022-11-17T00:18:18.997Z,95443.00
2022-11-17T00:21:03.732Z,95435.00
2022-11-17T00:23:46.086Z,95460.00
2022-11-17T00:26:20.208Z,95421.00
2022-11-17T00:28:46.966Z,95430.00
2022-11-17T00:31:33.094Z,95432.00
2022-11-17T00:34:06.133Z,95404.00
2022-11-17T00:36:46.672Z,95409.00
2022-11-17T00:39:14.939Z,95383.00
2022-11-17T00:41:41.199Z,95396.00
2022-11-17T00:44:08.815Z,95377.00
2022-11-17T00:46:37.186Z,95381.00
2022-11-17T00:49:05.319Z,95360.00
2022-11-17T00:51:31.564Z,95376.00
2022-11-17T00:53:58.295Z,95359.00
2022-11-17T00:56:25.182Z,95347.00
2022-11-17T00:58:52.450Z,95338.00
2022-11-17T01:01:19.950Z,95327.00
2022-11-17T01:03:46.906Z,95336.00
2022-11-17T01:06:17.307Z,95317.00
2022-11-17T01:08:44.204Z,95314.00
2022-11-17T01:11:15.343Z,95302.00
2022-11-17T01:13:43.453Z,95300.00
2022-11-17T01:16:14.453Z,95299.00
2022-11-17T01:18:42.218Z,95302.00
2022-11-17T01:21:22.284Z,95293.00
2022-11-17T01:23:51.361Z,95299.00
2022-11-17T01:26:21.428Z,95280.00
2022-11-17T01:28:49.123Z,95274.00
2022-11-17T01:31:26.550Z,95264.00
2022-11-17T01:33:53.969Z,95269.00
2022-11-17T01:36:30.011Z,95260.00
2022-11-17T01:38:56.253Z,95250.00
2022-11-17T01:41:25.759Z,95254.00
2022-11-17T01:44:33.636Z,95238.00
2022-11-17T01:47:01.143Z,95239.00
2022-11-17T01:49:28.700Z,95232.00
2022-11-17T01:52:04.016Z,95232.00
2022-11-17T01:54:33.187Z,95232.00
2022-11-17T01:57:08.594Z,95235.00
2022-11-17T01:59:48.545Z,95223.00
2022-11-17T02:02:14.803Z,95214.00
2022-11-17T02:04:53.293Z,95203.00
2022-11-17T02:07:29.009Z,95196.00
2022-11-17T02:09:57.966Z,95210.00
2022-11-17T02:12:27.227Z,95185.00
2022-11-17T02:14:54.566Z,95176.00
2022-11-17T02:17:29.431Z,95194.00
2022-11-17T02:20:14.321Z,95181.00
2022-11-17T02:23:37.428Z,95187.00
2022-11-17T02:26:59.226Z,95171.00
2022-11-17T02:29:40.037Z,95178.00
2022-11-17T02:32:16.335Z,95170.00
2022-11-17T02:34:48.051Z,95155.00
2022-11-17T02:37:42.843Z,95170.00
2022-11-17T02:40:22.674Z,95160.00
2022-11-17T02:43:30.803Z,95143.00
2022-11-17T02:46:18.459Z,95140.00
2022-11-17T02:48:52.071Z,95158.00
2022-11-17T02:51:23.806Z,95153.00
2022-11-17T02:53:54.936Z,95136.00
2022-11-17T02:56:21.933Z,95134.00
2022-11-17T02:58:55.790Z,95125.00
2022-11-17T03:01:34.999Z,95133.00
2022-11-17T03:04:31.484Z,95102.00
2022-11-17T03:07:49.920Z,95115.00
2022-11-17T03:10:43.022Z,95120.00
2022-11-17T03:13:23.215Z,95115.00
2022-11-17T03:16:11.138Z,95112.00
2022-11-17T03:19:03.504Z,95116.00
2022-11-17T03:22:00.124Z,95108.00
2022-11-17T03:24:45.432Z,95100.00
2022-11-17T03:27:26.914Z,95105.00
2022-11-17T03:29:59.837Z,95107.00
2022-11-17T03:32:31.911Z,95092.00
2022-11-17T03:35:12.063Z,95090.00
2022-11-17T03:37:48.947Z,95112.00
2022-11-17T03:40:23.761Z,95101.00
2022-11-17T03:42:57.403Z,95097.00
2022-11-17T03:45:29.123Z,95090.00
2022-11-17T03:48:06.891Z,95086.00
2022-11-17T03:50:56.355Z,95087.00
2022-11-17T03:53:23.427Z,95082.00
2022-11-17T03:56:08.373Z,95082.00
2022-11-17T03:58:56.142Z,95085.00
2022-11-17T04:01:24.329Z,95072.00
2022-11-17T04:03:51.633Z,95083.00
2022-11-17T04:06:17.915Z,95073.00
2022-11-17T04:08:44.342Z,95053.00
2022-11-17T04:11:28.725Z,95049.00
2022-11-17T04:14:13.232Z,95069.00
2022-11-17T04:16:39.411Z,95075.00
2022-11-17T04:19:05.610Z,95051.00
2022-11-17T04:21:31.787Z,95080.00
2022-11-17T04:23:57.995Z,95061.00
2022-11-17T04:26:43.504Z,95042.00
2022-11-17T04:29:09.648Z,95043.00
2022-11-17T04:31:35.809Z,95049.00
2022-11-17T04:34:05.159Z,95046.00
2022-11-17T04:36:39.963Z,95051.00
2022-11-17T04:39:06.591Z,95052.00
2022-11-17T04:41:52.998Z,95040.00
2022-11-17T04:44:26.505Z,95033.00
2022-11-17T04:46:54.374Z,95031.00
2022-11-17T04:49:23.134Z,95019.00
2022-11-17T04:51:51.402Z,95022.00
2022-11-17T04:54:23.756Z,95012.00
2022-11-17T04:56:51.168Z,95036.00
2022-11-17T04:59:17.351Z,95014.00
2022-11-17T05:01:44.097Z,95009.00
2022-11-17T05:04:13.532Z,95011.00
2022-11-17T05:06:43.691Z,95011.00
2022-11-17T05:09:15.946Z,94999.00
2022-11-17T05:12:01.569Z,94997.00
2022-11-17T05:14:29.293Z,95002.00
2022-11-17T05:17:09.490Z,94996.00
2022-11-17T05:19:45.535Z,94981.00
2022-11-17T05:22:40.083Z,94996.00
2022-11-17T05:25:07.455Z,94984.00
2022-11-17T05:27:34.141Z,94992.00
2022-11-17T05:30:05.899Z,94998.00
2022-11-17T05:32:32.096Z,94987.00
2022-11-17T05:34:58.233Z,94992.00
2022-11-17T05:37:24.366Z,95001.00
2022-11-17T05:39:50.525Z,94991.00
2022-11-17T05:42:16.813Z,94985.00
2022-11-17T05:44:42.971Z,95004.00
2022-11-17T05:47:09.134Z,94989.00
2022-11-17T05:49:35.267Z,94986.00
2022-11-17T05:52:01.460Z,95000.00
2022-11-17T05:54:27.591Z,94990.00
2022-11-17T05:57:08.974Z,94986.00
2022-11-17T05:59:58.860Z,94978.00
2022-11-17T06:02:32.232Z,94983.00
2022-11-17T06:04:58.429Z,94971.00
2022-11-17T06:07:24.684Z,94983.00
2022-11-17T06:09:51.751Z,94981.00
2022-11-17T06:12:18.278Z,94979.00
2022-11-17T06:14:44.494Z,94972.00
2022-11-17T06:17:27.726Z,94972.00
2022-11-17T06:20:05.886Z,94955.00
2022-11-17T06:22:32.929Z,94960.00
2022-11-17T06:25:02.578Z,94967.00
2022-11-17T06:27:32.262Z,94953.00
2022-11-17T06:30:03.123Z,94954.00
2022-11-17T06:32:30.760Z,94969.00
2022-11-17T06:34:57.003Z,94953.00
2022-11-17T06:37:24.263Z,94962.00
2022-11-17T06:39:50.371Z,94958.00
2022-11-17T06:42:16.528Z,94961.00
2022-11-17T06:44:42.865Z,94958.00
2022-11-17T06:47:09.032Z,94947.00
2022-11-17T06:49:35.195Z,94955.00
2022-11-17T06:52:01.361Z,94955.00
2022-11-17T06:54:27.538Z,94961.00
2022-11-17T06:56:54.627Z,94962.00
2022-11-17T06:59:20.787Z,94963.00
2022-11-17T07:01:46.976Z,94982.00
2022-11-17T07:04:13.226Z,94973.00
2022-11-17T07:06:39.412Z,94966.00
2022-11-17T07:09:05.628Z,94973.00
2022-11-17T07:11:37.481Z,94971.00
2022-11-17T07:14:03.648Z,94990.00
2022-11-17T07:16:31.666Z,94978.00
2022-11-17T07:18:58.445Z,94980.00
2022-11-17T07:21:24.834Z,94986.00
2022-11-17T07:23:51.059Z,94995.00
2022-11-17T07:26:17.211Z,94980.00
2022-11-17T07:28:43.360Z,94994.00
2022-11-17T07:31:09.528Z,94990.00
2022-11-17T07:33:36.428Z,94990.00
2022-11-17T07:36:06.186Z,94973.00
2022-11-17T07:38:34.899Z,94988.00
2022-11-17T07:41:03.232Z,94986.00
2022-11-17T07:43:29.723Z,94984.00
2022-11-17T07:45:56.249Z,94978.00
2022-11-17T07:48:22.805Z,94972.00
2022-11-17T07:50:49.369Z,94974.00
2022-11-17T07:53:15.741Z,94979.00
2022-11-17T07:55:41.959Z,94957.00
2022-11-17T07:58:08.108Z,94972.00
2022-11-17T08:00:34.436Z,95037.00
2022-11-17T08:03:04.964Z,95025.00
2022-11-17T08:05:39.934Z,95031.00
2022-11-17T08:08:10.034Z,95024.00
2022-11-17T08:10:36.255Z,95007.00
2022-11-17T08:13:02.586Z,95015.00
2022-11-17T08:15:29.943Z,95012.00
2022-11-17T08:17:58.571Z,95019.00
2022-11-17T08:20:27.110Z,95024.00
2022-11-17T08:22:54.333Z,95047.00
2022-11-17T08:25:24.084Z,95033.00
2022-11-17T08:27:54.409Z,95037.00
2022-11-17T08:30:21.770Z,95027.00
2022-11-17T08:32:51.363Z,95025.00
2022-11-17T08:35:21.688Z,95030.00
2022-11-17T08:37:47.859Z,95016.00
2022-11-17T08:40:15.201Z,95028.00
2022-11-17T08:42:41.343Z,95029.00
2022-11-17T08:45:09.222Z,95038.00
2022-11-17T08:47:36.448Z,95037.00
2022-11-17T08:50:05.214Z,95041.00
2022-11-17T08:52:31.662Z,95045.00
2022-11-17T08:54:57.901Z,95025.00
2022-11-17T08:57:24.193Z,95043.00
2022-11-17T08:59:50.414Z,95052.00
2022-11-17T09:02:17.145Z,95066.00
2022-11-17T09:04:45.288Z,95052.00
2022-11-17T09:07:11.514Z,95056.00
2022-11-17T09:09:37.857Z,95061.00
2022-11-17T09:12:04.630Z,95057.00
2022-11-17T09:14:30.947Z,95066.00
2022-11-17T09:16:57.310Z,95053.00
2022-11-17T09:19:23.538Z,95068.00
2022-11-17T09:21:49.693Z,95084.00
2022-11-17T09:24:16.043Z,95072.00
2022-11-17T09:26:42.266Z,95076.00
2022-11-17T09:29:08.779Z,95091.00
2022-11-17T09:31:35.821Z,95082.00
2022-11-17T09:34:05.665Z,95091.00
2022-11-17T09:36:32.762Z,95084.00
2022-11-17T09:38:58.918Z,95102.00
2022-11-17T09:41:31.757Z,95094.00
2022-11-17T09:44:43.371Z,95094.00
2022-11-17T09:47:42.530Z,95099.00
2022-11-17T09:50:28.439Z,95106.00
2022-11-17T09:53:16.466Z,95107.00
2022-11-17T09:55:50.280Z,95101.00
2022-11-17T09:58:32.308Z,95112.00
2022-11-17T10:01:00.011Z,95105.00
2022-11-17T10:03:31.952Z,95105.00
2022-11-17T10:06:02.828Z,95124.00
2022-11-17T10:08:40.854Z,95110.00
2022-11-17T10:11:32.257Z,95122.00
2022-11-17T10:14:15.978Z,95117.00
2022-11-17T10:16:58.144Z,95119.00
2022-11-17T10:19:28.450Z,95112.00
2022-11-17T10:22:06.383Z,95129.00
2022-11-17T10:24:43.113Z,95134.00
2022-11-17T10:27:27.613Z,95124.00
2022-11-17T10:30:18.900Z,95129.00
2022-11-17T10:32:58.161Z,95127.00
2022-11-17T10:35:26.538Z,95127.00
2022-11-17T10:38:28.421Z,95138.00
2022-11-17T10:40:58.373Z,95126.00
2022-11-17T10:43:36.622Z,95127.00
2022-11-17T10:46:16.313Z,95157.00
2022-11-17T10:49:04.395Z,95141.00
2022-11-17T10:51:33.597Z,95143.00
2022-11-17T10:54:20.942Z,95146.00
2022-11-17T10:56:55.192Z,95141.00
2022-11-17T10:59:31.938Z,95134.00
2022-11-17T11:02:26.264Z,95145.00
2022-11-17T11:05:15.235Z,95136.00
2022-11-17T11:07:41.658Z,95134.00
2022-11-17T11:10:26.389Z,95138.00
2022-11-17T11:13:24.118Z,95141.00
2022-11-17T11:15:52.390Z,95149.00
2022-11-17T11:18:20.039Z,95145.00
2022-11-17T11:21:12.831Z,95153.00
2022-11-17T11:23:50.575Z,95133.00
2022-11-17T11:27:23.607Z,95150.00
2022-11-17T11:30:04.657Z,95143.00
2022-11-17T11:32:37.091Z,95149.00
2022-11-17T11:35:43.628Z,95147.00
2022-11-17T11:38:46.577Z,95147.00
2022-11-17T11:41:22.919Z,95159.00
2022-11-17T11:44:18.054Z,95167.00
2022-11-17T11:47:03.018Z,95162.00
2022-11-17T11:50:14.497Z,95170.00
2022-11-17T11:52:47.944Z,95159.00
2022-11-17T11:55:33.808Z,95163.00
2022-11-17T11:58:23.603Z,95178.00
2022-11-17T12:00:59.558Z,95172.00
2022-11-17T12:03:41.609Z,95173.00
2022-11-17T12:06:46.645Z,95171.00
2022-11-17T12:09:47.331Z,95181.00
2022-11-17T12:12:19.429Z,95183.00
2022-11-17T12:15:19.644Z,95186.00
2022-11-17T12:17:51.942Z,95190.00
2022-11-17T12:20:30.313Z,95183.00
2022-11-17T12:23:59.118Z,95177.00
2022-11-17T12:26:31.932Z,95185.00
2022-11-17T12:29:25.259Z,95205.00
2022-11-17T12:31:55.129Z,95193.00
2022-11-17T12:34:36.343Z,95192.00
2022-11-17T12:37:14.418Z,95195.00
2022-11-17T12:40:10.106Z,95203.00
2022-11-17T12:43:16.762Z,95203.00
2022-11-17T12:45:52.025Z,95207.00
2022-11-17T12:48:35.148Z,95210.00
2022-11-17T12:51:26.511Z,95208.00
2022-11-17T12:54:27.192Z,95196.00
2022-11-17T12:57:19.264Z,95192.00
2022-11-17T13:00:11.178Z,95187.00
2022-11-17T13:02:58.408Z,95210.00
2022-11-17T13:05:29.351Z,95221.00
2022-11-17T13:08:27.770Z,95212.00
2022-11-17T13:11:06.531Z,95216.00
2022-11-17T13:13:47.793Z,95210.00
2022-11-17T13:16:27.733Z,95208.00
2022-11-17T13:19:42.690Z,95217.00
2022-11-17T13:22:24.995Z,95208.00
2022-11-17T13:25:29.674Z,95219.00
2022-11-17T13:28:10.034Z,95227.00
2022-11-17T13:30:55.685Z,95225.00
2022-11-17T13:33:40.297Z,95223.00
2022-11-17T13:36:30.692Z,95209.00
2022-11-17T13:39:16.675Z,95219.00
2022-11-17T13:42:00.106Z,95207.00
2022-11-17T13:44:46.700Z,95213.00
2022-11-17T13:47:50.720Z,95219.00
2022-11-17T13:50:37.177Z,95215.00
2022-11-17T13:53:16.726Z,95221.00
2022-11-17T13:56:02.719Z,95233.00
2022-11-17T13:58:45.764Z,95224.00
2022-11-17T14:01:34.784Z,95231.00
2022-11-17T14:04:36.693Z,95225.00
2022-11-17T14:07:34.108Z,95236.00
2022-11-17T14:10:34.706Z,95235.00
2022-11-17T14:13:27.027Z,95230.00
2022-11-17T14:16:12.710Z,95234.00
2022-11-17T14:19:16.496Z,95238.00
2022-11-17T14:22:35.728Z,95247.00
2022-11-17T14:25:21.833Z,95246.00
2022-11-17T14:28:00.810Z,95240.00
2022-11-17T14:30:46.712Z,95247.00
2022-11-17T14:33:26.850Z,95264.00
2022-11-17T14:36:19.771Z,95255.00
2022-11-17T14:38:59.030Z,95250.00
2022-11-17T14:41:47.735Z,95252.00
2022-11-17T14:44:26.833Z,95263.00
2022-11-17T14:47:12.703Z,95260.00
2022-11-17T14:49:58.737Z,95260.00
2022-11-17T14:52:40.308Z,95262.00
2022-11-17T14:55:27.739Z,95258.00
2022-11-17T14:58:13.796Z,95261.00
2022-11-17T15:00:52.752Z,95261.00
2022-11-17T15:03:32.445Z,95256.00
2022-11-17T15:06:21.734Z,95275.00
2022-11-17T15:09:05.141Z,95281.00
2022-11-17T15:11:51.717Z,95272.00
2022-11-17T15:14:31.447Z,95274.00
2022-11-17T15:17:17.744Z,95283.00
2022-11-17T15:19:57.400Z,95279.00
2022-11-17T15:22:43.782Z,95280.00
2022-11-17T15:25:29.770Z,95286.00
2022-11-17T15:28:12.671Z,95284.00
2022-11-17T15:31:00.730Z,95286.00
2022-11-17T15:33:40.017Z,95290.00
2022-11-17T15:36:29.019Z,95296.00
2022-11-17T15:39:08.166Z,95293.00
2022-11-17T15:41:55.868Z,95290.00
2022-11-17T15:44:34.836Z,95293.00
2022-11-17T15:47:20.769Z,95291.00
2022-11-17T15:50:00.121Z,95300.00
2022-11-17T15:53:03.648Z,95289.00
2022-11-17T15:55:50.755Z,95293.00
2022-11-17T15:58:30.784Z,95285.00
2022-11-17T16:01:42.761Z,95296.00
2022-11-17T16:04:22.426Z,95297.00
2022-11-17T16:07:09.810Z,95310.00
2022-11-17T16:09:50.563Z,95319.00
2022-11-17T16:12:36.810Z,95320.00
2022-11-17T16:15:16.487Z,95308.00
2022-11-17T16:18:02.776Z,95312.00
2022-11-17T16:20:42.683Z,95317.00
2022-11-17T16:23:28.772Z,95319.00
2022-11-17T16:26:17.766Z,95326.00
2022-11-17T16:29:06.837Z,95339.00
2022-11-17T16:31:52.974Z,95324.00
2022-11-17T16:34:31.932Z,95337.00
2022-11-17T16:37:18.837Z,95337.00
2022-11-17T16:39:57.946Z,95336.00
2022-11-17T16:42:49.781Z,95325.00
2022-11-17T16:45:29.074Z,95336.00
2022-11-17T16:48:14.794Z,95321.00
2022-11-17T16:50:53.878Z,95333.00
2022-11-17T16:53:39.802Z,95326.00
2022-11-17T16:56:18.922Z,95340.00
2022-11-17T16:59:05.809Z,95345.00
2022-11-17T17:01:51.969Z,95328.00
2022-11-17T17:04:31.516Z,95338.00
2022-11-17T17:07:18.857Z,95349.00
2022-11-17T17:09:58.487Z,95351.00
2022-11-17T17:12:44.826Z,95356.00
2022-11-17T17:15:24.446Z,95352.00
2022-11-17T17:18:11.832Z,95353.00
2022-11-17T17:20:52.315Z,95357.00
2022-11-17T17:23:38.807Z,95361.00
2022-11-17T17:26:21.585Z,95364.00
2022-11-17T17:29:10.816Z,95366.00
2022-11-17T17:31:56.783Z,95366.00
2022-11-17T17:34:35.883Z,95371.00
2022-11-17T17:37:22.801Z,95364.00
2022-11-17T17:40:01.859Z,95378.00
2022-11-17T17:42:47.802Z,95386.00
2022-11-17T17:45:26.894Z,95381.00
2022-11-17T17:48:12.820Z,95375.00
2022-11-17T17:50:51.861Z,95372.00
2022-11-17T17:53:38.802Z,95380.00
2022-11-17T17:56:19.977Z,95376.00
2022-11-17T17:59:05.812Z,95382.00
2022-11-17T18:01:54.915Z,95379.00
2022-11-17T18:04:34.492Z,95381.00
2022-11-17T18:07:20.916Z,95388.00
2022-11-17T18:10:00.471Z,95381.00
2022-11-17T18:12:46.814Z,95398.00
2022-11-17T18:15:26.528Z,95374.00
2022-11-17T18:18:12.875Z,95382.00
2022-11-17T18:21:07.086Z,95386.00
2022-11-17T18:23:53.803Z,95393.00
2022-11-17T18:26:35.230Z,95397.00
2022-11-17T18:29:19.127Z,95392.00
2022-11-17T18:31:46.691Z,95378.00
2022-11-17T18:34:18.055Z,95386.00
2022-11-17T18:36:44.684Z,95392.00
2022-11-17T18:39:10.953Z,95387.00
2022-11-17T18:41:37.226Z,95374.00
2022-11-17T18:44:04.121Z,95389.00
2022-11-17T18:46:32.391Z,95391.00
2022-11-17T18:48:59.410Z,95406.00
2022-11-17T18:51:29.912Z,95415.00
2022-11-17T18:53:59.967Z,95409.00
2022-11-17T18:56:31.134Z,95406.00
2022-11-17T18:58:57.358Z,95413.00
2022-11-17T19:01:29.804Z,95414.00
2022-11-17T19:04:01.654Z,95412.00
2022-11-17T19:06:28.867Z,95421.00
2022-11-17T19:08:58.890Z,95419.00
2022-11-17T19:11:26.288Z,95412.00
2022-11-17T19:13:52.498Z,95423.00
2022-11-17T19:16:21.759Z,95437.00
2022-11-17T19:18:50.695Z,95420.00
2022-11-17T19:21:26.740Z,95420.00
2022-11-17T19:23:56.959Z,95418.00
2022-11-17T19:26:29.775Z,95422.00
2022-11-17T19:28:59.533Z,95424.00
2022-11-17T19:31:27.437Z,95432.00
2022-11-17T19:33:57.119Z,95419.00
2022-11-17T19:36:30.181Z,95418.00
2022-11-17T19:38:59.115Z,95430.00
2022-11-17T19:41:35.552Z,95447.00
2022-11-17T19:44:04.752Z,95442.00
2022-11-17T19:46:31.925Z,95434.00
2022-11-17T19:48:58.797Z,95438.00
2022-11-17T19:51:36.083Z,95463.00
2022-11-17T19:54:06.546Z,95453.00
2022-11-17T19:56:32.993Z,95452.00
2022-11-17T19:58:59.173Z,95468.00
2022-11-17T20:01:28.545Z,95467.00
2022-11-17T20:03:56.629Z,95477.00
2022-11-17T20:06:26.679Z,95461.00
2022-11-17T20:08:54.064Z,95486.00
2022-11-17T20:11:23.789Z,95494.00
2022-11-17T20:13:50.372Z,95488.00
2022-11-17T20:16:20.814Z,95497.00
2022-11-17T20:18:53.507Z,95492.00
2022-11-17T20:21:20.161Z,95497.00
2022-11-17T20:23:47.864Z,95497.00
2022-11-17T20:26:18.566Z,95480.00
2022-11-17T20:28:45.731Z,95494.00
2022-11-17T20:31:24.651Z,95505.00
2022-11-17T20:33:55.605Z,95508.00
2022-11-17T20:36:22.959Z,95503.00
2022-11-17T20:38:55.432Z,95512.00
2022-11-17T20:41:22.906Z,95505.00
2022-11-17T20:43:52.371Z,95524.00
2022-11-17T20:46:19.313Z,95519.00
2022-11-17T20:48:45.681Z,95519.00
2022-11-17T20:51:17.727Z,95524.00
2022-11-17T20:53:44.491Z,95540.00
2022-11-17T20:56:13.517Z,95536.00
2022-11-17T20:58:40.003Z,95528.00
2022-11-17T21:01:11.229Z,95536.00
2022-11-17T21:03:37.868Z,95538.00
2022-11-17T21:06:05.385Z,95535.00
2022-11-17T21:08:35.631Z,95546.00
2022-11-17T21:11:06.104Z,95538.00
2022-11-17T21:13:34.656Z,95543.00
2022-11-17T21:16:11.070Z,95530.00
2022-11-17T21:18:45.341Z,95541.00
2022-11-17T21:21:11.998Z,95538.00
2022-11-17T21:23:40.373Z,95538.00
2022-11-17T21:26:08.372Z,95552.00
2022-11-17T21:28:38.274Z,95552.00
2022-11-17T21:31:17.082Z,95548.00
2022-11-17T21:33:44.541Z,95563.00
2022-11-17T21:36:16.586Z,95555.00
2022-11-17T21:38:44.631Z,95553.00
2022-11-17T21:41:14.713Z,95582.00
2022-11-17T21:43:43.152Z,95566.00
2022-11-17T21:46:21.592Z,95553.00
2022-11-17T21:48:48.821Z,95568.00
2022-11-17T21:51:16.211Z,95555.00
2022-11-17T21:53:43.364Z,95568.00
2022-11-17T21:56:10.748Z,95553.00
2022-11-17T21:58:36.958Z,95550.00
2022-11-17T22:01:10.294Z,95556.00
2022-11-17T22:03:37.725Z,95552.00
2022-11-17T22:06:19.914Z,95558.00
2022-11-17T22:08:47.088Z,95558.00
2022-11-17T22:11:34.186Z,95575.00
2022-11-17T22:14:17.174Z,95581.00
2022-11-17T22:16:51.078Z,95562.00
2022-11-17T22:19:19.887Z,95579.00
2022-11-17T22:21:52.822Z,95591.00
2022-11-17T22:24:19.710Z,95576.00
2022-11-17T22:26:46.387Z,95578.00
2022-11-17T22:29:21.050Z,95600.00
2022-11-17T22:31:48.958Z,95588.00
2022-11-17T22:34:16.757Z,95592.00
2022-11-17T22:36:42.997Z,95586.00
2022-11-17T22:39:09.432Z,95580.00
2022-11-17T22:41:35.694Z,95595.00
2022-11-17T22:44:02.338Z,95585.00
2022-11-17T22:46:28.879Z,95587.00
2022-11-17T22:48:55.831Z,95594.00
2022-11-17T22:51:40.740Z,95598.00
2022-11-17T22:54:07.863Z,95604.00
2022-11-17T22:56:34.599Z,95598.00
2022-11-17T22:59:00.937Z,95602.00
2022-11-17T23:01:27.453Z,95606.00
2022-11-17T23:03:53.724Z,95617.00
2022-11-17T23:06:21.683Z,95610.00
2022-11-17T23:08:47.952Z,95624.00
2022-11-17T23:14:00.684Z,95616.00
2022-11-17T23:16:27.097Z,95622.00
2022-11-17T23:18:54.595Z,95620.00
2022-11-17T23:21:21.646Z,95613.00
2022-11-17T23:23:48.496Z,95619.00
2022-11-17T23:26:15.606Z,95617.00
2022-11-17T23:28:42.647Z,95616.00
2022-11-17T23:31:15.311Z,95626.00
2022-11-17T23:33:44.829Z,95615.00
2022-11-17T23:36:21.616Z,95623.00
2022-11-17T23:38:50.225Z,95630.00
2022-11-17T23:41:19.868Z,95624.00
2022-11-17T23:43:49.902Z,95626.00
2022-11-17T23:46:20.387Z,95629.00
2022-11-17T23:48:46.947Z,95636.00
2022-11-17T23:51:17.773Z,95626.00
2022-11-17T23:53:43.965Z,95625.00
2022-11-17T23:56:10.821Z,95631.00
2022-11-17T23:58:37.836Z,95644.00
